createdAt,value
2023-03-03T00:01:07.238Z,10.20
2023-03-03T00:03:34.388Z,11.88
2023-03-03T00:06:03.182Z,10.50
2023-03-03T00:08:30.786Z,12.02
2023-03-03T00:10:57.902Z,8.93
2023-03-03T00:13:27.387Z,10.43
2023-03-03T00:15:55.288Z,10.07
2023-03-03T00:18:26.777Z,8.77
2023-03-03T00:20:55.115Z,10.50
2023-03-03T00:23:22.259Z,9.10
2023-03-03T00:25:51.798Z,10.07
2023-03-03T00:28:32.188Z,10.40
2023-03-03T00:31:00.638Z,11.57
2023-03-03T00:33:32.947Z,9.65
2023-03-03T00:36:15.748Z,9.07
2023-03-03T00:38:48.561Z,8.98
2023-03-03T00:41:18.947Z,10.40
2023-03-03T00:43:46.049Z,8.38
2023-03-03T00:46:16.635Z,9.27
2023-03-03T00:48:44.635Z,9.40
2023-03-03T00:51:17.762Z,7.65
2023-03-03T00:53:44.819Z,9.80
2023-03-03T00:56:11.876Z,8.20
2023-03-03T00:58:38.957Z,7.57
2023-03-03T01:01:06.143Z,9.07
2023-03-03T01:03:33.300Z,8.20
2023-03-03T01:06:00.353Z,8.63
2023-03-03T01:08:27.530Z,8.25
2023-03-03T01:11:04.000Z,9.95
2023-03-03T01:13:32.013Z,8.57
2023-03-03T01:16:00.097Z,8.20
2023-03-03T01:18:27.887Z,8.10
2023-03-03T01:20:55.001Z,8.02
2023-03-03T01:23:22.217Z,7.45
2023-03-03T01:25:49.374Z,7.85
2023-03-03T01:28:16.479Z,9.02
2023-03-03T01:30:43.549Z,8.20
2023-03-03T01:33:10.654Z,9.38
2023-03-03T01:35:37.829Z,8.13
2023-03-03T01:38:04.941Z,8.82
2023-03-03T01:40:32.178Z,8.23
2023-03-03T01:43:02.595Z,7.93
2023-03-03T01:45:31.433Z,8.55
2023-03-03T01:48:04.550Z,7.63
2023-03-03T01:50:31.650Z,7.03
2023-03-03T01:53:00.370Z,7.68
2023-03-03T01:55:31.625Z,8.70
2023-03-03T01:58:01.122Z,7.88
2023-03-03T02:00:28.770Z,8.13
2023-03-03T02:02:56.148Z,8.15
2023-03-03T02:05:23.331Z,9.55
2023-03-03T02:07:51.018Z,8.27
2023-03-03T02:10:19.217Z,7.90
2023-03-03T02:12:49.046Z,7.03
2023-03-03T02:15:17.897Z,8.10
2023-03-03T02:17:45.180Z,8.18
2023-03-03T02:20:20.502Z,8.10
2023-03-03T02:22:59.745Z,9.00
2023-03-03T02:25:31.028Z,9.20
2023-03-03T02:27:58.210Z,8.50
2023-03-03T02:30:25.575Z,8.23
2023-03-03T02:32:52.699Z,8.23
2023-03-03T02:35:28.391Z,9.10
2023-03-03T02:37:57.601Z,7.50
2023-03-03T02:40:26.403Z,8.77
2023-03-03T02:42:54.404Z,9.40
2023-03-03T02:45:21.493Z,7.18
2023-03-03T02:47:51.536Z,7.47
2023-03-03T02:50:18.803Z,8.70
2023-03-03T02:52:45.961Z,8.00
2023-03-03T02:55:13.089Z,8.48
2023-03-03T02:57:40.249Z,7.50
2023-03-03T03:00:07.697Z,7.53
2023-03-03T03:02:34.826Z,7.95
2023-03-03T03:05:01.983Z,7.35
2023-03-03T03:07:29.143Z,7.22
2023-03-03T03:09:56.395Z,7.10
2023-03-03T03:12:23.591Z,8.00
2023-03-03T03:14:50.706Z,7.80
2023-03-03T03:17:17.894Z,9.57
2023-03-03T03:19:45.017Z,7.25
2023-03-03T03:22:12.086Z,7.95
2023-03-03T03:24:39.181Z,9.35
2023-03-03T03:27:06.286Z,7.75
2023-03-03T03:29:33.448Z,8.43
2023-03-03T03:32:00.565Z,8.93
2023-03-03T03:34:27.687Z,8.10
2023-03-03T03:36:54.787Z,8.40
2023-03-03T03:39:22.607Z,8.27
2023-03-03T03:41:49.748Z,8.77
2023-03-03T03:44:16.820Z,9.27
2023-03-03T03:46:43.938Z,8.30
2023-03-03T03:49:10.990Z,7.93
2023-03-03T03:51:41.229Z,8.20
2023-03-03T03:54:08.856Z,8.40
2023-03-03T03:56:36.023Z,8.32
2023-03-03T03:59:03.135Z,9.30
2023-03-03T04:01:30.245Z,7.47
2023-03-03T04:03:57.415Z,7.43
2023-03-03T04:06:24.504Z,9.10
2023-03-03T04:08:51.643Z,8.95
2023-03-03T04:11:18.692Z,8.38
2023-03-03T04:13:45.976Z,8.80
2023-03-03T04:16:13.153Z,10.95
2023-03-03T04:18:40.467Z,8.50
2023-03-03T04:21:07.614Z,8.68
2023-03-03T04:23:34.743Z,10.18
2023-03-03T04:26:01.828Z,8.27
2023-03-03T04:28:29.050Z,9.48
2023-03-03T04:30:56.164Z,8.15
2023-03-03T04:33:23.238Z,9.07
2023-03-03T04:35:51.287Z,9.80
2023-03-03T04:38:18.518Z,9.13
2023-03-03T04:40:45.844Z,9.27
2023-03-03T04:43:12.971Z,9.93
2023-03-03T04:45:40.122Z,9.27
2023-03-03T04:48:07.377Z,9.73
2023-03-03T04:50:34.944Z,8.48
2023-03-03T04:53:02.187Z,9.80
2023-03-03T04:55:29.319Z,9.75
2023-03-03T04:57:56.520Z,9.30
2023-03-03T05:00:23.741Z,9.30
2023-03-03T05:02:50.833Z,7.65
2023-03-03T05:05:18.123Z,7.75
2023-03-03T05:07:45.211Z,8.55
2023-03-03T05:10:12.563Z,8.98
2023-03-03T05:12:39.783Z,9.27
2023-03-03T05:15:07.341Z,7.88
2023-03-03T05:17:34.454Z,9.05
2023-03-03T05:20:01.562Z,8.35
2023-03-03T05:22:28.815Z,8.57
2023-03-03T05:24:55.901Z,9.00
2023-03-03T05:27:22.970Z,9.75
2023-03-03T05:29:50.337Z,7.05
2023-03-03T05:32:17.530Z,8.13
2023-03-03T05:34:44.650Z,7.30
2023-03-03T05:37:11.817Z,7.72
2023-03-03T05:39:38.969Z,8.38
2023-03-03T05:42:06.162Z,8.48
2023-03-03T05:44:33.416Z,8.90
2023-03-03T05:47:00.481Z,8.48
2023-03-03T05:49:27.868Z,9.07
2023-03-03T05:51:55.025Z,8.32
2023-03-03T05:54:22.176Z,8.15
2023-03-03T05:56:49.283Z,8.95
2023-03-03T05:59:16.458Z,7.90
2023-03-03T06:01:43.587Z,9.35
2023-03-03T06:04:10.872Z,7.45
2023-03-03T06:06:38.012Z,7.65
2023-03-03T06:09:05.210Z,7.88
2023-03-03T06:11:32.430Z,8.52
2023-03-03T06:13:59.980Z,7.53
2023-03-03T06:16:27.132Z,8.02
2023-03-03T06:18:54.276Z,7.93
2023-03-03T06:21:21.607Z,7.90
2023-03-03T06:23:48.736Z,8.55
2023-03-03T06:26:15.896Z,7.38
2023-03-03T06:28:42.963Z,8.80
2023-03-03T06:31:10.082Z,8.50
2023-03-03T06:33:38.374Z,8.23
2023-03-03T06:36:05.950Z,10.30
2023-03-03T06:38:33.071Z,8.55
2023-03-03T06:41:02.125Z,9.50
2023-03-03T06:43:29.337Z,7.90
2023-03-03T06:45:56.524Z,8.80
2023-03-03T06:48:23.622Z,8.93
2023-03-03T06:50:50.695Z,9.10
2023-03-03T06:53:19.045Z,7.80
2023-03-03T06:55:46.530Z,7.53
2023-03-03T06:58:20.976Z,8.85
2023-03-03T07:00:54.048Z,6.75
2023-03-03T07:03:25.745Z,8.02
2023-03-03T07:05:53.638Z,8.25
2023-03-03T07:08:21.931Z,6.32
2023-03-03T07:10:50.040Z,7.40
2023-03-03T07:13:24.792Z,9.80
2023-03-03T07:15:53.547Z,7.93
2023-03-03T07:18:23.713Z,11.40
2023-03-03T07:20:50.844Z,9.25
2023-03-03T07:23:25.624Z,8.82
2023-03-03T07:25:53.350Z,7.65
2023-03-03T07:28:20.424Z,7.55
2023-03-03T07:30:49.911Z,7.78
2023-03-03T07:33:22.672Z,8.75
2023-03-03T07:35:50.027Z,9.23
2023-03-03T07:38:17.123Z,8.32
2023-03-03T07:40:51.315Z,7.90
2023-03-03T07:43:30.819Z,7.60
2023-03-03T07:46:03.631Z,7.93
2023-03-03T07:48:37.729Z,7.50
2023-03-03T07:51:20.312Z,6.65
2023-03-03T07:53:47.530Z,7.03
2023-03-03T07:56:31.497Z,7.07
2023-03-03T07:58:59.045Z,6.13
2023-03-03T08:01:26.134Z,5.70
2023-03-03T08:03:53.287Z,6.30
2023-03-03T08:06:29.630Z,5.93
2023-03-03T08:09:02.689Z,7.10
2023-03-03T08:11:29.835Z,6.43
2023-03-03T08:13:57.336Z,6.50
2023-03-03T08:16:35.402Z,6.22
2023-03-03T08:19:04.528Z,5.45
2023-03-03T08:21:34.744Z,6.05
2023-03-03T08:24:01.879Z,5.07
2023-03-03T08:26:28.964Z,5.95
2023-03-03T08:28:56.121Z,5.57
2023-03-03T08:31:39.898Z,5.72
2023-03-03T08:34:07.955Z,4.57
2023-03-03T08:36:35.256Z,4.35
2023-03-03T08:39:03.101Z,4.93
2023-03-03T08:41:30.354Z,4.07
2023-03-03T08:43:57.567Z,4.80
2023-03-03T08:46:24.817Z,4.43
2023-03-03T08:48:55.495Z,4.45
2023-03-03T08:51:23.008Z,4.05
2023-03-03T08:53:50.338Z,3.63
2023-03-03T08:56:17.774Z,3.65
2023-03-03T08:59:01.557Z,4.10
2023-03-03T09:01:29.981Z,3.95
2023-03-03T09:04:02.949Z,5.07
2023-03-03T09:06:30.555Z,4.00
2023-03-03T09:09:01.348Z,4.47
2023-03-03T09:11:32.851Z,4.30
2023-03-03T09:14:21.944Z,3.95
2023-03-03T09:17:12.249Z,3.85
2023-03-03T09:19:39.435Z,4.35
2023-03-03T09:22:23.540Z,4.97
2023-03-03T09:24:52.817Z,4.47
2023-03-03T09:27:23.335Z,4.20
2023-03-03T09:29:50.465Z,4.45
2023-03-03T09:32:29.695Z,3.80
2023-03-03T09:34:56.839Z,3.70
2023-03-03T09:37:25.114Z,3.63
2023-03-03T09:39:53.326Z,3.85
2023-03-03T09:42:23.506Z,3.28
2023-03-03T09:45:03.079Z,3.60
2023-03-03T09:47:49.127Z,4.05
2023-03-03T09:50:19.245Z,3.38
2023-03-03T09:52:54.653Z,3.35
2023-03-03T09:55:23.271Z,3.63
2023-03-03T09:58:10.094Z,3.75
2023-03-03T10:00:46.381Z,3.38
2023-03-03T10:03:32.655Z,2.55
2023-03-03T10:06:05.473Z,3.40
2023-03-03T10:08:47.393Z,4.30
2023-03-03T10:11:20.653Z,3.33
2023-03-03T10:13:53.994Z,3.17
2023-03-03T10:16:24.181Z,2.85
2023-03-03T10:19:09.870Z,2.67
2023-03-03T10:21:40.182Z,2.92
2023-03-03T10:24:25.748Z,3.05
2023-03-03T10:27:12.389Z,2.83
2023-03-03T10:29:40.747Z,2.15
2023-03-03T10:32:17.158Z,2.38
2023-03-03T10:34:44.432Z,3.15
2023-03-03T10:37:30.323Z,2.35
2023-03-03T10:40:06.582Z,2.63
2023-03-03T10:42:44.913Z,2.50
2023-03-03T10:45:23.974Z,2.67
2023-03-03T10:47:56.807Z,2.72
2023-03-03T10:50:23.896Z,2.78
2023-03-03T10:52:54.206Z,2.70
2023-03-03T10:55:39.984Z,2.50
2023-03-03T10:58:16.463Z,2.50
2023-03-03T11:00:50.175Z,3.03
2023-03-03T11:03:34.015Z,2.83
2023-03-03T11:06:12.871Z,2.72
2023-03-03T11:08:44.051Z,2.95
2023-03-03T11:11:29.348Z,2.40
2023-03-03T11:13:56.473Z,2.40
2023-03-03T11:16:26.854Z,2.78
2023-03-03T11:18:53.974Z,2.33
2023-03-03T11:21:24.356Z,2.60
2023-03-03T11:23:59.794Z,2.90
2023-03-03T11:26:32.848Z,2.20
2023-03-03T11:29:02.916Z,1.95
2023-03-03T11:31:42.003Z,2.35
2023-03-03T11:34:24.501Z,1.70
2023-03-03T11:36:58.476Z,1.88
2023-03-03T11:39:27.642Z,1.33
2023-03-03T11:42:05.826Z,1.70
2023-03-03T11:44:36.256Z,1.92
2023-03-03T11:47:03.711Z,1.63
2023-03-03T11:49:34.039Z,1.92
2023-03-03T11:52:04.797Z,1.48
2023-03-03T11:54:50.626Z,1.30
2023-03-03T11:57:20.733Z,1.90
2023-03-03T11:59:57.039Z,1.50
2023-03-03T12:02:44.037Z,1.50
2023-03-03T12:05:30.196Z,1.83
2023-03-03T12:08:09.077Z,1.60
2023-03-03T12:10:45.934Z,2.15
2023-03-03T12:13:21.130Z,1.73
2023-03-03T12:15:55.127Z,1.60
2023-03-03T12:18:30.849Z,1.33
2023-03-03T12:21:14.591Z,1.00
2023-03-03T12:23:55.094Z,1.95
2023-03-03T12:26:51.360Z,1.42
2023-03-03T12:29:46.772Z,0.80
2023-03-03T12:32:29.109Z,1.10
2023-03-03T12:35:02.773Z,1.00
2023-03-03T12:37:41.092Z,0.90
2023-03-03T12:40:10.095Z,3.75
2023-03-03T12:42:53.578Z,1.52
2023-03-03T12:45:32.790Z,4.50
2023-03-03T12:48:05.965Z,1.80
2023-03-03T12:50:42.985Z,10.10
2023-03-03T12:53:12.948Z,2.22
2023-03-03T12:55:53.278Z,0.90
2023-03-03T12:58:45.109Z,0.65
2023-03-03T13:01:28.141Z,0.75
2023-03-03T13:03:56.398Z,0.90
2023-03-03T13:06:30.088Z,1.00
2023-03-03T13:09:16.207Z,1.17
2023-03-03T13:11:51.270Z,1.85
2023-03-03T13:14:28.695Z,2.88
2023-03-03T13:17:02.522Z,1.60
2023-03-03T13:19:41.744Z,0.95
2023-03-03T13:22:13.331Z,1.30
2023-03-03T13:24:46.511Z,0.88
2023-03-03T13:27:21.078Z,0.82
2023-03-03T13:30:01.285Z,1.08
2023-03-03T13:32:35.508Z,1.00
2023-03-03T13:35:09.265Z,1.23
2023-03-03T13:37:38.615Z,0.70
2023-03-03T13:40:12.147Z,1.05
2023-03-03T13:42:39.429Z,0.82
2023-03-03T13:45:27.965Z,0.90
2023-03-03T13:47:55.079Z,1.10
2023-03-03T13:50:25.342Z,0.80
2023-03-03T13:53:10.784Z,1.13
2023-03-03T13:55:43.045Z,0.70
2023-03-03T13:58:28.718Z,0.93
2023-03-03T14:01:04.759Z,0.98
2023-03-03T14:03:38.076Z,0.88
2023-03-03T14:06:06.709Z,0.60
2023-03-03T14:08:33.760Z,0.55
2023-03-03T14:11:08.049Z,1.00
2023-03-03T14:13:35.274Z,0.73
2023-03-03T14:16:08.027Z,1.02
2023-03-03T14:18:38.791Z,0.77
2023-03-03T14:21:11.712Z,0.70
2023-03-03T14:23:38.826Z,0.70
2023-03-03T14:26:06.019Z,0.70
2023-03-03T14:28:47.061Z,0.80
2023-03-03T14:31:23.479Z,1.05
2023-03-03T14:34:10.294Z,0.98
2023-03-03T14:36:39.427Z,0.68
2023-03-03T14:39:25.007Z,0.82
2023-03-03T14:41:53.063Z,0.90
2023-03-03T14:44:23.552Z,0.73
2023-03-03T14:47:03.048Z,0.80
2023-03-03T14:49:31.907Z,0.98
2023-03-03T14:52:03.544Z,1.02
2023-03-03T14:54:40.699Z,0.63
2023-03-03T14:57:10.762Z,0.80
2023-03-03T14:59:37.928Z,0.50
2023-03-03T15:02:17.228Z,0.55
2023-03-03T15:04:48.671Z,0.65
2023-03-03T15:07:30.931Z,0.60
2023-03-03T15:12:36.257Z,0.77
2023-03-03T15:15:03.435Z,0.90
2023-03-03T15:17:49.193Z,0.65
2023-03-03T15:20:22.585Z,0.90
2023-03-03T15:23:08.431Z,1.15
2023-03-03T15:25:59.402Z,0.80
2023-03-03T15:28:45.454Z,0.82
2023-03-03T15:31:25.336Z,1.17
2023-03-03T15:33:52.465Z,1.35
2023-03-03T15:36:38.452Z,1.42
2023-03-03T15:39:17.759Z,0.82
2023-03-03T15:41:48.439Z,0.50
2023-03-03T15:44:18.672Z,1.20
2023-03-03T15:46:45.807Z,0.70
2023-03-03T15:49:17.429Z,0.70
2023-03-03T15:52:02.429Z,0.77
2023-03-03T15:54:49.227Z,0.70
2023-03-03T15:57:31.530Z,1.10
2023-03-03T16:00:22.158Z,3.17
2023-03-03T16:03:09.505Z,1.30
2023-03-03T16:05:43.771Z,1.60
2023-03-03T16:08:15.362Z,2.00
2023-03-03T16:11:05.411Z,1.58
2023-03-03T16:13:45.257Z,1.10
2023-03-03T16:16:41.742Z,1.10
2023-03-03T16:19:11.721Z,1.00
2023-03-03T16:21:57.393Z,1.52
2023-03-03T16:24:41.130Z,1.23
2023-03-03T16:27:17.358Z,1.88
2023-03-03T16:29:53.375Z,1.10
2023-03-03T16:32:25.207Z,1.85
2023-03-03T16:34:56.597Z,2.40
2023-03-03T16:37:32.369Z,1.00
2023-03-03T16:40:12.555Z,2.17
2023-03-03T16:42:39.676Z,1.90
2023-03-03T16:45:06.834Z,1.60
2023-03-03T16:47:33.894Z,1.52
2023-03-03T16:50:16.331Z,1.90
2023-03-03T16:53:02.493Z,1.83
2023-03-03T16:55:33.057Z,2.05
2023-03-03T16:58:06.383Z,2.38
2023-03-03T17:00:40.417Z,1.80
2023-03-03T17:03:25.012Z,1.27
2023-03-03T17:06:04.507Z,1.63
2023-03-03T17:08:50.438Z,1.60
2023-03-03T17:11:20.637Z,1.35
2023-03-03T17:13:55.733Z,1.20
2023-03-03T17:16:22.865Z,1.48
2023-03-03T17:18:49.951Z,2.05
2023-03-03T17:21:37.334Z,1.85
2023-03-03T17:24:07.360Z,3.67
2023-03-03T17:26:46.478Z,2.97
2023-03-03T17:29:19.583Z,3.20
2023-03-03T17:31:54.636Z,2.55
2023-03-03T17:34:21.792Z,2.70
2023-03-03T17:37:07.650Z,4.78
2023-03-03T17:39:34.769Z,2.20
2023-03-03T17:42:01.830Z,1.40
2023-03-03T17:44:35.352Z,1.58
2023-03-03T17:47:05.862Z,2.25
2023-03-03T17:49:32.924Z,1.30
2023-03-03T17:52:21.290Z,1.80
2023-03-03T17:54:48.414Z,2.30
2023-03-03T17:57:24.710Z,1.75
2023-03-03T17:59:57.666Z,2.38
2023-03-03T18:02:33.721Z,2.95
2023-03-03T18:05:11.656Z,4.10
2023-03-03T18:07:38.886Z,1.70
2023-03-03T18:10:20.919Z,2.58
2023-03-03T18:12:51.039Z,3.50
2023-03-03T18:15:18.176Z,1.63
2023-03-03T18:17:57.597Z,2.33
2023-03-03T18:20:27.436Z,1.48
2023-03-03T18:22:54.545Z,2.05
2023-03-03T18:25:23.169Z,1.52
2023-03-03T18:28:03.802Z,1.10
2023-03-03T18:30:49.758Z,2.40
2023-03-03T18:33:17.329Z,1.85
2023-03-03T18:35:45.662Z,3.13
2023-03-03T18:38:16.028Z,2.92
2023-03-03T18:41:02.486Z,1.63
2023-03-03T18:43:44.971Z,1.88
2023-03-03T18:46:22.675Z,2.28
2023-03-03T18:48:59.329Z,2.17
2023-03-03T18:51:35.685Z,2.50
2023-03-03T18:54:18.576Z,1.95
2023-03-03T18:56:47.243Z,3.10
2023-03-03T18:59:33.975Z,2.85
2023-03-03T19:02:13.262Z,4.82
2023-03-03T19:04:49.283Z,5.22
2023-03-03T19:07:35.314Z,3.03
2023-03-03T19:10:04.060Z,3.30
2023-03-03T19:12:50.957Z,2.08
2023-03-03T19:15:31.063Z,2.60
2023-03-03T19:18:02.135Z,2.75
2023-03-03T19:20:42.484Z,2.72
2023-03-03T19:23:13.104Z,2.75
2023-03-03T19:25:40.383Z,2.83
2023-03-03T19:28:26.118Z,3.42
2023-03-03T19:30:54.326Z,1.92
2023-03-03T19:33:31.108Z,1.90
2023-03-03T19:36:07.629Z,1.63
2023-03-03T19:38:43.812Z,4.15
2023-03-03T19:41:13.774Z,3.88
2023-03-03T19:43:59.437Z,3.28
2023-03-03T19:46:29.638Z,3.15
2023-03-03T19:49:13.543Z,2.58
2023-03-03T19:51:43.473Z,3.45
2023-03-03T19:54:13.308Z,3.40
2023-03-03T19:56:40.386Z,2.85
2023-03-03T19:59:20.067Z,2.90
2023-03-03T20:02:10.652Z,3.35
2023-03-03T20:04:53.916Z,3.65
2023-03-03T20:07:29.040Z,2.35
2023-03-03T20:10:25.815Z,2.03
2023-03-03T20:13:00.618Z,1.90
2023-03-03T20:15:29.881Z,2.20
2023-03-03T20:18:20.187Z,2.50
2023-03-03T20:20:47.283Z,1.95
2023-03-03T20:23:16.522Z,3.35
2023-03-03T20:25:43.655Z,2.00
2023-03-03T20:28:10.749Z,2.70
2023-03-03T20:30:43.638Z,2.38
2023-03-03T20:33:20.600Z,2.65
2023-03-03T20:35:52.446Z,2.20
2023-03-03T20:38:33.499Z,1.55
2023-03-03T20:41:08.146Z,2.03
2023-03-03T20:43:56.665Z,2.00
2023-03-03T20:46:29.824Z,2.40
2023-03-03T20:49:12.086Z,5.63
2023-03-03T20:54:32.638Z,6.68
2023-03-03T20:57:02.826Z,5.75
2023-03-03T20:59:36.289Z,4.45
2023-03-03T21:02:23.655Z,4.22
2023-03-03T21:05:08.273Z,6.60
2023-03-03T21:07:36.496Z,5.85
2023-03-03T21:10:10.960Z,4.68
2023-03-03T21:12:38.087Z,3.38
2023-03-03T21:15:07.992Z,2.00
2023-03-03T21:17:35.236Z,3.55
2023-03-03T21:20:21.230Z,3.42
2023-03-03T21:22:48.388Z,3.42
2023-03-03T21:25:34.057Z,1.75
2023-03-03T21:28:16.515Z,2.20
2023-03-03T21:31:03.087Z,2.72
2023-03-03T21:33:40.064Z,4.80
2023-03-03T21:36:07.452Z,5.05
2023-03-03T21:38:35.252Z,5.00
2023-03-03T21:41:02.966Z,3.90
2023-03-03T21:43:40.451Z,6.03
2023-03-03T21:46:07.634Z,3.45
2023-03-03T21:48:34.806Z,2.70
2023-03-03T21:51:02.202Z,4.18
2023-03-03T21:53:30.535Z,3.22
2023-03-03T21:55:57.714Z,1.75
2023-03-03T21:58:24.826Z,1.85
2023-03-03T22:00:51.912Z,1.85
2023-03-03T22:03:20.765Z,1.88
2023-03-03T22:05:53.508Z,3.17
2023-03-03T22:08:23.337Z,3.20
2023-03-03T22:10:53.873Z,3.63
2023-03-03T22:13:21.241Z,2.88
2023-03-03T22:15:48.704Z,1.63
2023-03-03T22:18:18.226Z,3.03
2023-03-03T22:20:48.770Z,5.90
2023-03-03T22:23:16.089Z,3.53
2023-03-03T22:25:43.302Z,3.13
2023-03-03T22:28:10.413Z,1.83
2023-03-03T22:30:37.624Z,1.98
2023-03-03T22:33:04.976Z,1.73
2023-03-03T22:35:32.191Z,1.33
2023-03-03T22:37:59.415Z,1.75
2023-03-03T22:40:26.862Z,0.85
2023-03-03T22:42:54.014Z,1.38
2023-03-03T22:45:21.091Z,1.65
2023-03-03T22:47:48.241Z,1.98
2023-03-03T22:50:15.430Z,1.85
2023-03-03T22:52:42.596Z,1.67
2023-03-03T22:55:10.062Z,1.20
2023-03-03T22:57:40.216Z,1.83
2023-03-03T23:00:09.159Z,1.40
2023-03-03T23:02:36.293Z,1.13
2023-03-03T23:05:08.265Z,1.90
2023-03-03T23:10:02.638Z,0.80
2023-03-03T23:12:29.779Z,1.10
2023-03-03T23:14:56.924Z,1.25
2023-03-03T23:17:24.017Z,0.90
2023-03-03T23:19:51.392Z,1.23
2023-03-03T23:22:18.804Z,0.85
2023-03-03T23:24:45.951Z,1.35
2023-03-03T23:27:13.362Z,3.05
2023-03-03T23:29:40.536Z,2.80
2023-03-03T23:32:07.713Z,4.20
2023-03-03T23:34:34.820Z,2.95
2023-03-03T23:37:01.914Z,5.78
2023-03-03T23:39:29.117Z,3.22
2023-03-03T23:41:56.227Z,2.33
2023-03-03T23:44:24.164Z,1.50
2023-03-03T23:46:51.277Z,1.10
2023-03-03T23:49:18.354Z,1.50
2023-03-03T23:51:45.489Z,1.10
2023-03-03T23:54:12.670Z,1.02
2023-03-03T23:56:39.767Z,1.40
2023-03-03T23:59:06.872Z,1.23
